CheckWX is a tool to help pilots better visualize weather data.  It is not intended as a substitute for an official pre-flight weather briefing.

15:47:00 UTC

KTYS TAF
Mc Ghee Tyson Airport
Knoxville, Tennessee, USA
KTYS 171120Z 1712/1812 VRB03KT P6SM FEW250 FM171700 32005KT P6SM FEW180 SCT250 FM172200 VRB04KT P6SM SKC

Oct-17@
12:00 UTC

Oct-17 @ 12:00 UTC

Oct-17@
17:00 UTC

Oct-17 @ 17:00 UTC

KTYS 171120Z 1712/1812 VRB03KT P6SM FEW250
Wind
  • Variable at 3 KTS
Cloud Levels
  • Few at 25,000' AGL

Oct-17@
17:00 UTC

Oct-17 @ 17:00 UTC

Oct-17@
22:00 UTC

Oct-17 @ 22:00 UTC

FM171700 32005KT P6SM FEW180 SCT250

From

From Standard forecast or significant change

Wind
  • 320° at 5 KTS
Cloud Levels
  • Few at 18,000' AGL
  • Scattered at 25,000' AGL

Oct-17@
22:00 UTC

Oct-17 @ 22:00 UTC

Oct-18@
12:00 UTC

Oct-18 @ 12:00 UTC

FM172200 VRB04KT P6SM SKC

From

From Standard forecast or significant change

Wind
  • Variable at 4 KTS
Cloud Levels
  • Clear skies